sensor_id;sensor_type;location;lat;lon;timestamp;pressure;altitude;pressure_sealevel;temperature;humidity
6198;BME280;3132;42.622;23.328;2023-05-07T00:00:05;93051.56;;;10.13;95.34
6198;BME280;3132;42.622;23.328;2023-05-07T00:02:34;93047.88;;;10.24;94.91
6198;BME280;3132;42.622;23.328;2023-05-07T00:04:59;93038.78;;;10.11;94.78
6198;BME280;3132;42.622;23.328;2023-05-07T00:07:24;93046.34;;;9.98;95.53
6198;BME280;3132;42.622;23.328;2023-05-07T00:09:50;93048.16;;;10.07;94.54
6198;BME280;3132;42.622;23.328;2023-05-07T00:12:15;93048.69;;;9.94;95.97
6198;BME280;3132;42.622;23.328;2023-05-07T00:14:41;93051.84;;;9.86;96.02
6198;BME280;3132;42.622;23.328;2023-05-07T00:17:06;93053.91;;;9.94;96.39
6198;BME280;3132;42.622;23.328;2023-05-07T00:19:32;93009.66;;;9.49;97.32
6198;BME280;3132;42.622;23.328;2023-05-07T00:21:57;93052.63;;;9.71;97.75
6198;BME280;3132;42.622;23.328;2023-05-07T00:24:23;93041.19;;;9.52;99.64
6198;BME280;3132;42.622;23.328;2023-05-07T00:26:49;93045.31;;;9.73;98.05
6198;BME280;3132;42.622;23.328;2023-05-07T00:29:14;93029.44;;;9.60;98.96
6198;BME280;3132;42.622;23.328;2023-05-07T00:31:40;93029.19;;;9.56;99.42
6198;BME280;3132;42.622;23.328;2023-05-07T00:34:05;93027.88;;;9.59;99.91
6198;BME280;3132;42.622;23.328;2023-05-07T00:36:31;93029.72;;;9.58;99.57
6198;BME280;3132;42.622;23.328;2023-05-07T00:38:59;93016.69;;;9.53;99.37
6198;BME280;3132;42.622;23.328;2023-05-07T00:41:25;93035.16;;;9.62;99.31
6198;BME280;3132;42.622;23.328;2023-05-07T00:43:51;93035.97;;;9.52;100.00
6198;BME280;3132;42.622;23.328;2023-05-07T00:46:22;93034.13;;;9.63;99.47
6198;BME280;3132;42.622;23.328;2023-05-07T00:48:48;93036.47;;;9.59;100.00
6198;BME280;3132;42.622;23.328;2023-05-07T00:51:14;93026.84;;;9.55;100.00
6198;BME280;3132;42.622;23.328;2023-05-07T00:53:39;93039.34;;;9.53;100.00
6198;BME280;3132;42.622;23.328;2023-05-07T00:56:05;93027.88;;;9.34;100.00
6198;BME280;3132;42.622;23.328;2023-05-07T00:58:32;93044.31;;;9.44;100.00
6198;BME280;3132;42.622;23.328;2023-05-07T01:00:58;93044.03;;;9.41;100.00
6198;BME280;3132;42.622;23.328;2023-05-07T01:03:24;93040.38;;;9.42;100.00
6198;BME280;3132;42.622;23.328;2023-05-07T01:05:52;93036.72;;;9.53;100.00
6198;BME280;3132;42.622;23.328;2023-05-07T01:08:18;93034.66;;;9.50;100.00
6198;BME280;3132;42.622;23.328;2023-05-07T01:10:44;93046.13;;;9.59;100.00
6198;BME280;3132;42.622;23.328;2023-05-07T01:13:12;93048.75;;;9.54;100.00
6198;BME280;3132;42.622;23.328;2023-05-07T01:15:39;93029.44;;;9.55;100.00
6198;BME280;3132;42.622;23.328;2023-05-07T01:18:06;93042.72;;;9.48;100.00
6198;BME280;3132;42.622;23.328;2023-05-07T01:20:32;93037.00;;;9.51;100.00
6198;BME280;3132;42.622;23.328;2023-05-07T01:22:57;93014.84;;;9.39;100.00
6198;BME280;3132;42.622;23.328;2023-05-07T01:25:25;93036.47;;;9.54;100.00
6198;BME280;3132;42.622;23.328;2023-05-07T01:27:51;93041.94;;;9.58;100.00
6198;BME280;3132;42.622;23.328;2023-05-07T01:30:16;93036.19;;;9.31;100.00
6198;BME280;3132;42.622;23.328;2023-05-07T01:32:47;93042.47;;;9.40;100.00
6198;BME280;3132;42.622;23.328;2023-05-07T01:35:17;93029.97;;;9.32;100.00
6198;BME280;3132;42.622;23.328;2023-05-07T01:37:44;93034.16;;;9.43;100.00
6198;BME280;3132;42.622;23.328;2023-05-07T01:40:10;93003.91;;;9.32;100.00
6198;BME280;3132;42.622;23.328;2023-05-07T01:42:36;93026.06;;;9.44;100.00
6198;BME280;3132;42.622;23.328;2023-05-07T01:45:02;93001.81;;;9.39;100.00
6198;BME280;3132;42.622;23.328;2023-05-07T01:47:28;93012.25;;;9.54;100.00
6198;BME280;3132;42.622;23.328;2023-05-07T01:49:54;92999.19;;;9.59;100.00
6198;BME280;3132;42.622;23.328;2023-05-07T01:52:20;93004.69;;;9.67;100.00
6198;BME280;3132;42.622;23.328;2023-05-07T01:54:46;93002.31;;;9.66;100.00
6198;BME280;3132;42.622;23.328;2023-05-07T01:57:11;92984.09;;;9.56;100.00
6198;BME280;3132;42.622;23.328;2023-05-07T01:59:36;92988.00;;;9.58;100.00
6198;BME280;3132;42.622;23.328;2023-05-07T02:02:02;92993.22;;;9.58;100.00
6198;BME280;3132;42.622;23.328;2023-05-07T02:04:27;92992.16;;;9.59;100.00
6198;BME280;3132;42.622;23.328;2023-05-07T02:06:52;92978.63;;;9.12;100.00
6198;BME280;3132;42.622;23.328;2023-05-07T02:09:18;92985.13;;;9.20;100.00
6198;BME280;3132;42.622;23.328;2023-05-07T02:11:44;92974.22;;;9.23;100.00
6198;BME280;3132;42.622;23.328;2023-05-07T02:14:09;92984.63;;;9.28;100.00
6198;BME280;3132;42.622;23.328;2023-05-07T02:16:35;92965.34;;;9.14;100.00
6198;BME280;3132;42.622;23.328;2023-05-07T02:19:00;92962.22;;;9.17;100.00
6198;BME280;3132;42.622;23.328;2023-05-07T02:21:25;92959.63;;;9.07;100.00
6198;BME280;3132;42.622;23.328;2023-05-07T02:23:51;92965.59;;;9.12;100.00
6198;BME280;3132;42.622;23.328;2023-05-07T02:26:17;92965.09;;;9.15;100.00
6198;BME280;3132;42.622;23.328;2023-05-07T02:28:42;92973.69;;;9.21;100.00
6198;BME280;3132;42.622;23.328;2023-05-07T02:31:08;92981.50;;;9.01;100.00
6198;BME280;3132;42.622;23.328;2023-05-07T02:33:33;92960.38;;;8.77;100.00
6198;BME280;3132;42.622;23.328;2023-05-07T02:36:10;92972.34;;;8.78;100.00
6198;BME280;3132;42.622;23.328;2023-05-07T02:38:36;92983.00;;;8.72;100.00
6198;BME280;3132;42.622;23.328;2023-05-07T02:41:01;92983.81;;;8.82;100.00
6198;BME280;3132;42.622;23.328;2023-05-07T02:43:27;92979.94;;;8.90;100.00
6198;BME280;3132;42.622;23.328;2023-05-07T02:46:06;92952.56;;;8.62;100.00
6198;BME280;3132;42.622;23.328;2023-05-07T02:48:32;92986.69;;;8.91;100.00
6198;BME280;3132;42.622;23.328;2023-05-07T02:50:58;92988.72;;;8.69;100.00
6198;BME280;3132;42.622;23.328;2023-05-07T02:53:24;92984.88;;;8.76;100.00
6198;BME280;3132;42.622;23.328;2023-05-07T02:55:53;92999.16;;;8.79;100.00
6198;BME280;3132;42.622;23.328;2023-05-07T02:58:19;92996.59;;;8.84;100.00
6198;BME280;3132;42.622;23.328;2023-05-07T03:00:44;92995.78;;;8.83;100.00
6198;BME280;3132;42.622;23.328;2023-05-07T03:03:10;93002.31;;;8.91;100.00
6198;BME280;3132;42.622;23.328;2023-05-07T03:05:36;93007.00;;;8.99;100.00
6198;BME280;3132;42.622;23.328;2023-05-07T03:08:01;92997.63;;;8.78;100.00
6198;BME280;3132;42.622;23.328;2023-05-07T03:10:27;93002.81;;;8.88;100.00
6198;BME280;3132;42.622;23.328;2023-05-07T03:12:52;93008.53;;;8.80;100.00
6198;BME280;3132;42.622;23.328;2023-05-07T03:15:17;93002.56;;;8.89;100.00
6198;BME280;3132;42.622;23.328;2023-05-07T03:17:43;93002.81;;;8.88;100.00
6198;BME280;3132;42.622;23.328;2023-05-07T03:20:08;92976.47;;;8.54;100.00
6198;BME280;3132;42.622;23.328;2023-05-07T03:22:34;93010.88;;;8.76;100.00
6198;BME280;3132;42.622;23.328;2023-05-07T03:25:00;93009.59;;;8.84;100.00
6198;BME280;3132;42.622;23.328;2023-05-07T03:27:25;93014.78;;;8.89;100.00
6198;BME280;3132;42.622;23.328;2023-05-07T03:29:51;93016.91;;;9.07;100.00
6198;BME280;3132;42.622;23.328;2023-05-07T03:32:16;93027.88;;;9.09;100.00
6198;BME280;3132;42.622;23.328;2023-05-07T03:34:42;93020.56;;;9.11;100.00
6198;BME280;3132;42.622;23.328;2023-05-07T03:37:07;93021.63;;;9.30;100.00
6198;BME280;3132;42.622;23.328;2023-05-07T03:39:32;93026.31;;;9.28;100.00
6198;BME280;3132;42.622;23.328;2023-05-07T03:41:58;93024.75;;;9.32;100.00
6198;BME280;3132;42.622;23.328;2023-05-07T03:44:24;93016.94;;;9.37;100.00
6198;BME280;3132;42.622;23.328;2023-05-07T03:46:49;93011.97;;;9.40;100.00
6198;BME280;3132;42.622;23.328;2023-05-07T03:49:14;93033.34;;;9.57;100.00
6198;BME280;3132;42.622;23.328;2023-05-07T03:51:40;93017.97;;;9.61;100.00
6198;BME280;3132;42.622;23.328;2023-05-07T03:54:05;93032.56;;;9.77;100.00
6198;BME280;3132;42.622;23.328;2023-05-07T03:56:31;93022.63;;;9.84;99.90
6198;BME280;3132;42.622;23.328;2023-05-07T03:58:56;93034.38;;;9.87;99.68
6198;BME280;3132;42.622;23.328;2023-05-07T04:01:22;93046.09;;;10.09;98.62
6198;BME280;3132;42.622;23.328;2023-05-07T04:03:47;93031.72;;;10.07;98.25
6198;BME280;3132;42.622;23.328;2023-05-07T04:06:12;93057.78;;;10.27;98.36
6198;BME280;3132;42.622;23.328;2023-05-07T04:08:38;93056.44;;;10.39;97.89
6198;BME280;3132;42.622;23.328;2023-05-07T04:11:03;93057.97;;;10.50;96.86
6198;BME280;3132;42.622;23.328;2023-05-07T04:13:29;93065.75;;;10.60;95.90
6198;BME280;3132;42.622;23.328;2023-05-07T04:15:55;93067.31;;;10.66;96.28
6198;BME280;3132;42.622;23.328;2023-05-07T04:18:21;93074.34;;;10.71;95.77
6198;BME280;3132;42.622;23.328;2023-05-07T04:20:47;93069.63;;;10.73;96.10
6198;BME280;3132;42.622;23.328;2023-05-07T04:23:13;93077.66;;;10.86;95.63
6198;BME280;3132;42.622;23.328;2023-05-07T04:25:38;93088.06;;;10.96;95.64
6198;BME280;3132;42.622;23.328;2023-05-07T04:28:04;93088.91;;;10.82;95.02
6198;BME280;3132;42.622;23.328;2023-05-07T04:30:29;93091.13;;;10.60;96.64
6198;BME280;3132;42.622;23.328;2023-05-07T04:32:55;93088.00;;;10.48;98.04
6198;BME280;3132;42.622;23.328;2023-05-07T04:35:21;93073.09;;;10.58;97.33
6198;BME280;3132;42.622;23.328;2023-05-07T04:37:47;93097.28;;;10.84;96.56
6198;BME280;3132;42.622;23.328;2023-05-07T04:40:12;93085.72;;;10.95;95.11
6198;BME280;3132;42.622;23.328;2023-05-07T04:42:38;93105.13;;;11.38;94.15
6198;BME280;3132;42.622;23.328;2023-05-07T04:45:04;93107.38;;;11.05;95.19
6198;BME280;3132;42.622;23.328;2023-05-07T04:47:30;93105.47;;;11.60;92.94
6198;BME280;3132;42.622;23.328;2023-05-07T04:49:57;93108.06;;;11.70;92.34
6198;BME280;3132;42.622;23.328;2023-05-07T04:52:22;93114.09;;;11.65;90.49
6198;BME280;3132;42.622;23.328;2023-05-07T04:54:47;93110.72;;;11.98;90.23
6198;BME280;3132;42.622;23.328;2023-05-07T04:57:13;93112.16;;;12.43;89.32
6198;BME280;3132;42.622;23.328;2023-05-07T04:59:38;93109.16;;;12.26;90.13
6198;BME280;3132;42.622;23.328;2023-05-07T05:02:04;93105.00;;;12.25;90.64
6198;BME280;3132;42.622;23.328;2023-05-07T05:04:29;93112.25;;;12.56;88.16
6198;BME280;3132;42.622;23.328;2023-05-07T05:06:55;93112.41;;;12.70;88.20
6198;BME280;3132;42.622;23.328;2023-05-07T05:09:20;93114.38;;;13.25;84.10
6198;BME280;3132;42.622;23.328;2023-05-07T05:11:45;93111.28;;;14.11;79.02
6198;BME280;3132;42.622;23.328;2023-05-07T05:14:11;93105.00;;;15.12;74.71
6198;BME280;3132;42.622;23.328;2023-05-07T05:16:36;93115.41;;;16.37;69.73
6198;BME280;3132;42.622;23.328;2023-05-07T05:19:02;93104.22;;;15.25;72.63
6198;BME280;3132;42.622;23.328;2023-05-07T05:21:28;93099.00;;;13.93;78.52
6198;BME280;3132;42.622;23.328;2023-05-07T05:23:53;93114.47;;;14.26;78.63
6198;BME280;3132;42.622;23.328;2023-05-07T05:26:19;93101.91;;;13.91;79.24
6198;BME280;3132;42.622;23.328;2023-05-07T05:28:46;93109.06;;;14.18;79.00
6198;BME280;3132;42.622;23.328;2023-05-07T05:31:11;93103.72;;;14.23;79.14
6198;BME280;3132;42.622;23.328;2023-05-07T05:33:37;93116.59;;;15.38;76.04
6198;BME280;3132;42.622;23.328;2023-05-07T05:36:03;93130.03;;;17.60;64.88
6198;BME280;3132;42.622;23.328;2023-05-07T05:38:28;93143.16;;;20.01;57.56
6198;BME280;3132;42.622;23.328;2023-05-07T05:40:54;93132.03;;;23.55;46.34
6198;BME280;3132;42.622;23.328;2023-05-07T05:43:20;93143.84;;;22.96;45.87
6198;BME280;3132;42.622;23.328;2023-05-07T05:45:45;93119.13;;;23.57;44.35
6198;BME280;3132;42.622;23.328;2023-05-07T05:48:11;93145.31;;;24.56;40.16
6198;BME280;3132;42.622;23.328;2023-05-07T05:50:36;93144.16;;;26.93;36.87
6198;BME280;3132;42.622;23.328;2023-05-07T05:53:02;93130.47;;;28.43;34.01
6198;BME280;3132;42.622;23.328;2023-05-07T05:55:27;93143.63;;;28.01;33.56
6198;BME280;3132;42.622;23.328;2023-05-07T05:57:53;93146.09;;;27.73;33.31
6198;BME280;3132;42.622;23.328;2023-05-07T06:00:18;93153.88;;;29.35;31.38
6198;BME280;3132;42.622;23.328;2023-05-07T06:02:44;93154.34;;;30.29;29.53
6198;BME280;3132;42.622;23.328;2023-05-07T06:05:09;93149.09;;;31.01;28.45
6198;BME280;3132;42.622;23.328;2023-05-07T06:07:34;93160.06;;;30.52;28.21
6198;BME280;3132;42.622;23.328;2023-05-07T06:10:01;93151.25;;;27.48;32.69
6198;BME280;3132;42.622;23.328;2023-05-07T06:12:26;93149.19;;;28.29;31.82
6198;BME280;3132;42.622;23.328;2023-05-07T06:14:51;93153.84;;;30.62;28.44
6198;BME280;3132;42.622;23.328;2023-05-07T06:17:17;93149.88;;;28.91;30.99
6198;BME280;3132;42.622;23.328;2023-05-07T06:19:42;93157.03;;;29.83;28.51
6198;BME280;3132;42.622;23.328;2023-05-07T06:22:08;93143.81;;;29.08;29.86
6198;BME280;3132;42.622;23.328;2023-05-07T06:24:33;93135.34;;;27.73;30.76
6198;BME280;3132;42.622;23.328;2023-05-07T06:26:58;93089.78;;;22.64;39.48
6198;BME280;3132;42.622;23.328;2023-05-07T06:29:24;93112.91;;;19.15;51.51
6198;BME280;3132;42.622;23.328;2023-05-07T06:31:54;93099.34;;;18.79;51.01
6198;BME280;3132;42.622;23.328;2023-05-07T06:34:20;93095.28;;;18.01;55.79
6198;BME280;3132;42.622;23.328;2023-05-07T06:36:45;93105.84;;;17.11;59.29
6198;BME280;3132;42.622;23.328;2023-05-07T06:39:10;93106.44;;;16.69;62.75
6198;BME280;3132;42.622;23.328;2023-05-07T06:41:36;93088.50;;;16.79;60.89
6198;BME280;3132;42.622;23.328;2023-05-07T06:44:02;93095.22;;;16.94;61.19
6198;BME280;3132;42.622;23.328;2023-05-07T06:46:28;93096.19;;;16.98;62.66
6198;BME280;3132;42.622;23.328;2023-05-07T06:48:54;93082.94;;;16.89;63.58
6198;BME280;3132;42.622;23.328;2023-05-07T06:51:19;93071.66;;;16.05;65.11
6198;BME280;3132;42.622;23.328;2023-05-07T06:53:44;93091.00;;;16.84;62.35
6198;BME280;3132;42.622;23.328;2023-05-07T06:56:10;93085.22;;;16.74;62.69
6198;BME280;3132;42.622;23.328;2023-05-07T06:58:37;93088.28;;;16.67;62.04
6198;BME280;3132;42.622;23.328;2023-05-07T07:01:02;93088.28;;;16.67;64.05
6198;BME280;3132;42.622;23.328;2023-05-07T07:03:28;93086.03;;;16.83;60.63
6198;BME280;3132;42.622;23.328;2023-05-07T07:05:54;93085.28;;;16.82;60.65
6198;BME280;3132;42.622;23.328;2023-05-07T07:08:19;93088.13;;;16.64;65.45
6198;BME280;3132;42.622;23.328;2023-05-07T07:10:46;93094.78;;;16.61;63.80
6198;BME280;3132;42.622;23.328;2023-05-07T07:13:12;93092.94;;;16.70;63.51
6198;BME280;3132;42.622;23.328;2023-05-07T07:15:37;93087.31;;;15.88;65.18
6198;BME280;3132;42.622;23.328;2023-05-07T07:18:03;93088.94;;;16.73;63.33
6198;BME280;3132;42.622;23.328;2023-05-07T07:20:28;93085.50;;;17.11;61.41
6198;BME280;3132;42.622;23.328;2023-05-07T07:22:53;93081.41;;;16.97;64.12
6198;BME280;3132;42.622;23.328;2023-05-07T07:25:19;93087.75;;;16.87;61.92
6198;BME280;3132;42.622;23.328;2023-05-07T07:27:44;93074.44;;;16.92;61.95
6198;BME280;3132;42.622;23.328;2023-05-07T07:30:10;93082.81;;;16.33;64.21
6198;BME280;3132;42.622;23.328;2023-05-07T07:32:35;93090.19;;;16.23;64.27
6198;BME280;3132;42.622;23.328;2023-05-07T07:35:01;93077.59;;;16.42;62.54
6198;BME280;3132;42.622;23.328;2023-05-07T07:37:27;93066.69;;;17.04;60.58
6198;BME280;3132;42.622;23.328;2023-05-07T07:39:52;93084.38;;;16.95;62.79
6198;BME280;3132;42.622;23.328;2023-05-07T07:42:18;93096.88;;;17.20;63.51
6198;BME280;3132;42.622;23.328;2023-05-07T07:44:43;93086.59;;;17.10;58.90
6198;BME280;3132;42.622;23.328;2023-05-07T07:47:09;93086.06;;;16.91;61.53
6198;BME280;3132;42.622;23.328;2023-05-07T07:49:34;93092.00;;;17.05;62.42
6198;BME280;3132;42.622;23.328;2023-05-07T07:52:00;93093.25;;;17.64;58.23
6198;BME280;3132;42.622;23.328;2023-05-07T07:54:26;93092.78;;;17.62;59.04
6198;BME280;3132;42.622;23.328;2023-05-07T07:56:51;93098.19;;;17.48;58.26
6198;BME280;3132;42.622;23.328;2023-05-07T07:59:17;93087.53;;;17.14;59.34
6198;BME280;3132;42.622;23.328;2023-05-07T08:01:44;93095.88;;;17.64;58.73
6198;BME280;3132;42.622;23.328;2023-05-07T08:04:10;93101.03;;;18.03;55.18
6198;BME280;3132;42.622;23.328;2023-05-07T08:06:36;93084.19;;;17.39;58.29
6198;BME280;3132;42.622;23.328;2023-05-07T08:09:01;93080.81;;;17.65;57.60
6198;BME280;3132;42.622;23.328;2023-05-07T08:11:27;93098.13;;;17.31;57.07
6198;BME280;3132;42.622;23.328;2023-05-07T08:13:54;93095.88;;;16.60;60.63
6198;BME280;3132;42.622;23.328;2023-05-07T08:16:19;93103.38;;;17.14;60.40
6198;BME280;3132;42.622;23.328;2023-05-07T08:18:45;93098.56;;;17.16;59.25
6198;BME280;3132;42.622;23.328;2023-05-07T08:21:10;93096.97;;;17.54;56.98
6198;BME280;3132;42.622;23.328;2023-05-07T08:23:36;93093.66;;;17.40;57.20
6198;BME280;3132;42.622;23.328;2023-05-07T08:26:01;93100.06;;;17.56;57.23
6198;BME280;3132;42.622;23.328;2023-05-07T08:28:27;93094.03;;;17.90;56.05
6198;BME280;3132;42.622;23.328;2023-05-07T08:30:52;93096.81;;;18.11;54.24
6198;BME280;3132;42.622;23.328;2023-05-07T08:33:17;93094.97;;;18.11;56.97
6198;BME280;3132;42.622;23.328;2023-05-07T08:35:43;93087.66;;;18.25;56.23
6198;BME280;3132;42.622;23.328;2023-05-07T08:38:08;93090.44;;;18.29;54.26
6198;BME280;3132;42.622;23.328;2023-05-07T08:40:37;93095.00;;;18.83;54.68
6198;BME280;3132;42.622;23.328;2023-05-07T08:43:05;93089.47;;;18.59;53.43
6198;BME280;3132;42.622;23.328;2023-05-07T08:45:32;93085.09;;;19.09;53.14
6198;BME280;3132;42.622;23.328;2023-05-07T08:48:02;93079.50;;;19.02;54.81
6198;BME280;3132;42.622;23.328;2023-05-07T08:50:28;93093.78;;;18.72;56.57
6198;BME280;3132;42.622;23.328;2023-05-07T08:52:54;93088.13;;;18.82;56.98
6198;BME280;3132;42.622;23.328;2023-05-07T08:55:20;93087.63;;;18.97;56.72
6198;BME280;3132;42.622;23.328;2023-05-07T08:57:45;93085.16;;;18.12;58.20
6198;BME280;3132;42.622;23.328;2023-05-07T09:00:12;93071.31;;;18.23;56.39
6198;BME280;3132;42.622;23.328;2023-05-07T09:02:38;93079.44;;;18.81;56.12
6198;BME280;3132;42.622;23.328;2023-05-07T09:05:03;93076.25;;;18.96;54.94
6198;BME280;3132;42.622;23.328;2023-05-07T09:07:30;93076.25;;;19.05;55.73
6198;BME280;3132;42.622;23.328;2023-05-07T09:09:55;93064.59;;;18.51;54.38
6198;BME280;3132;42.622;23.328;2023-05-07T09:12:22;93075.19;;;18.26;56.86
6198;BME280;3132;42.622;23.328;2023-05-07T09:14:49;93065.13;;;18.02;57.88
6198;BME280;3132;42.622;23.328;2023-05-07T09:17:18;93061.69;;;18.10;57.43
6198;BME280;3132;42.622;23.328;2023-05-07T09:19:44;93058.84;;;18.32;55.49
6198;BME280;3132;42.622;23.328;2023-05-07T09:22:13;93065.16;;;18.74;55.08
6198;BME280;3132;42.622;23.328;2023-05-07T09:24:39;93075.72;;;19.70;51.83
6198;BME280;3132;42.622;23.328;2023-05-07T09:27:05;93028.53;;;19.63;53.05
6198;BME280;3132;42.622;23.328;2023-05-07T09:29:31;93059.34;;;19.68;52.38
6198;BME280;3132;42.622;23.328;2023-05-07T09:32:07;93057.09;;;19.78;50.96
6198;BME280;3132;42.622;23.328;2023-05-07T09:34:33;93061.78;;;19.81;50.69
6198;BME280;3132;42.622;23.328;2023-05-07T09:37:03;93057.75;;;19.55;52.04
6198;BME280;3132;42.622;23.328;2023-05-07T09:39:42;93055.66;;;19.40;53.63
6198;BME280;3132;42.622;23.328;2023-05-07T09:42:08;93059.19;;;18.39;53.49
6198;BME280;3132;42.622;23.328;2023-05-07T09:44:35;93060.09;;;18.43;54.72
6198;BME280;3132;42.622;23.328;2023-05-07T09:47:04;93054.00;;;18.60;53.35
6198;BME280;3132;42.622;23.328;2023-05-07T09:49:30;93054.38;;;19.66;51.42
6198;BME280;3132;42.622;23.328;2023-05-07T09:51:55;93030.69;;;19.20;51.50
6198;BME280;3132;42.622;23.328;2023-05-07T09:54:22;93049.22;;;19.90;50.50
6198;BME280;3132;42.622;23.328;2023-05-07T09:56:51;93051.31;;;19.64;48.63
6198;BME280;3132;42.622;23.328;2023-05-07T09:59:18;93035.50;;;19.88;49.35
6198;BME280;3132;42.622;23.328;2023-05-07T10:01:44;93059.88;;;20.67;47.25
6198;BME280;3132;42.622;23.328;2023-05-07T10:04:10;93050.38;;;20.66;48.87
6198;BME280;3132;42.622;23.328;2023-05-07T10:06:37;93052.38;;;20.82;45.20
6198;BME280;3132;42.622;23.328;2023-05-07T10:09:04;93046.78;;;20.50;46.11
6198;BME280;3132;42.622;23.328;2023-05-07T10:11:33;93043.47;;;19.88;49.32
6198;BME280;3132;42.622;23.328;2023-05-07T10:13:59;93046.28;;;18.84;49.80
6198;BME280;3132;42.622;23.328;2023-05-07T10:16:30;93035.72;;;19.42;49.87
6198;BME280;3132;42.622;23.328;2023-05-07T10:18:58;93041.84;;;19.75;48.77
6198;BME280;3132;42.622;23.328;2023-05-07T10:21:25;93035.50;;;19.47;47.77
6198;BME280;3132;42.622;23.328;2023-05-07T10:24:04;93029.69;;;19.33;51.50
6198;BME280;3132;42.622;23.328;2023-05-07T10:26:32;93018.28;;;19.62;49.21
6198;BME280;3132;42.622;23.328;2023-05-07T10:29:12;93031.00;;;19.68;50.42
6198;BME280;3132;42.622;23.328;2023-05-07T10:34:54;93000.84;;;18.82;49.15
6198;BME280;3132;42.622;23.328;2023-05-07T10:37:20;93010.25;;;19.00;49.65
6198;BME280;3132;42.622;23.328;2023-05-07T10:39:46;93002.53;;;19.15;50.20
6198;BME280;3132;42.622;23.328;2023-05-07T10:42:14;93004.31;;;19.32;48.71
6198;BME280;3132;42.622;23.328;2023-05-07T10:44:39;93016.09;;;19.14;48.61
6198;BME280;3132;42.622;23.328;2023-05-07T10:47:08;93011.44;;;19.61;49.16
6198;BME280;3132;42.622;23.328;2023-05-07T10:52:21;93016.50;;;19.86;45.78
6198;BME280;3132;42.622;23.328;2023-05-07T10:57:43;93010.72;;;20.37;44.22
6198;BME280;3132;42.622;23.328;2023-05-07T11:05:30;93006.47;;;20.57;42.88
6198;BME280;3132;42.622;23.328;2023-05-07T11:08:02;93017.53;;;20.14;43.86
6198;BME280;3132;42.622;23.328;2023-05-07T11:10:50;93006.41;;;20.00;45.36
6198;BME280;3132;42.622;23.328;2023-05-07T11:13:17;92991.00;;;19.94;44.50
6198;BME280;3132;42.622;23.328;2023-05-07T11:15:47;93004.56;;;19.80;48.57
6198;BME280;3132;42.622;23.328;2023-05-07T11:18:15;93003.84;;;19.30;44.92
6198;BME280;3132;42.622;23.328;2023-05-07T11:20:55;92993.06;;;19.35;45.44
6198;BME280;3132;42.622;23.328;2023-05-07T11:26:09;92975.56;;;20.16;45.76
6198;BME280;3132;42.622;23.328;2023-05-07T11:28:42;92987.97;;;20.48;45.28
6198;BME280;3132;42.622;23.328;2023-05-07T11:31:09;92987.59;;;20.95;43.60
6198;BME280;3132;42.622;23.328;2023-05-07T11:33:35;92986.06;;;21.06;42.66
6198;BME280;3132;42.622;23.328;2023-05-07T11:36:05;92990.38;;;21.10;42.12
6198;BME280;3132;42.622;23.328;2023-05-07T11:38:34;92981.91;;;20.84;42.33
6198;BME280;3132;42.622;23.328;2023-05-07T11:41:00;92979.22;;;20.36;42.68
6198;BME280;3132;42.622;23.328;2023-05-07T11:43:27;92977.38;;;20.36;43.07
6198;BME280;3132;42.622;23.328;2023-05-07T11:45:52;92990.59;;;20.24;41.83
6198;BME280;3132;42.622;23.328;2023-05-07T11:48:18;92969.41;;;20.36;42.93
6198;BME280;3132;42.622;23.328;2023-05-07T11:50:54;92981.78;;;20.44;44.54
6198;BME280;3132;42.622;23.328;2023-05-07T11:53:25;92980.94;;;20.64;42.97
6198;BME280;3132;42.622;23.328;2023-05-07T11:55:57;92981.38;;;20.79;40.87
6198;BME280;3132;42.622;23.328;2023-05-07T11:58:24;92983.03;;;20.59;41.04
6198;BME280;3132;42.622;23.328;2023-05-07T12:00:54;92981.56;;;20.37;41.30
6198;BME280;3132;42.622;23.328;2023-05-07T12:03:20;92979.81;;;20.65;41.84
6198;BME280;3132;42.622;23.328;2023-05-07T12:05:47;92974.31;;;20.58;43.55
6198;BME280;3132;42.622;23.328;2023-05-07T12:08:20;92975.09;;;20.59;41.00
6198;BME280;3132;42.622;23.328;2023-05-07T12:10:47;92957.84;;;20.65;40.79
6198;BME280;3132;42.622;23.328;2023-05-07T12:13:20;92955.72;;;20.95;40.18
6198;BME280;3132;42.622;23.328;2023-05-07T12:15:46;92964.69;;;21.14;39.81
6198;BME280;3132;42.622;23.328;2023-05-07T12:18:12;92954.84;;;21.15;39.67
6198;BME280;3132;42.622;23.328;2023-05-07T12:20:38;92958.47;;;21.22;40.63
6198;BME280;3132;42.622;23.328;2023-05-07T12:23:04;92956.91;;;21.33;39.84
6198;BME280;3132;42.622;23.328;2023-05-07T12:25:38;92952.38;;;21.22;40.15
6198;BME280;3132;42.622;23.328;2023-05-07T12:28:04;92952.09;;;20.87;41.48
6198;BME280;3132;42.622;23.328;2023-05-07T12:30:32;92941.00;;;20.37;40.19
6198;BME280;3132;42.622;23.328;2023-05-07T12:32:57;92940.88;;;20.33;41.41
6198;BME280;3132;42.622;23.328;2023-05-07T12:35:35;92931.50;;;20.72;43.29
6198;BME280;3132;42.622;23.328;2023-05-07T12:38:01;92933.84;;;20.98;42.58
6198;BME280;3132;42.622;23.328;2023-05-07T12:40:46;92922.97;;;20.91;42.04
6198;BME280;3132;42.622;23.328;2023-05-07T12:43:25;92927.09;;;20.88;41.63
6198;BME280;3132;42.622;23.328;2023-05-07T12:45:54;92921.44;;;21.02;42.36
6198;BME280;3132;42.622;23.328;2023-05-07T12:48:20;92927.16;;;21.16;40.41
6198;BME280;3132;42.622;23.328;2023-05-07T12:50:49;92917.50;;;21.63;39.18
6198;BME280;3132;42.622;23.328;2023-05-07T12:53:15;92911.72;;;21.45;38.19
6198;BME280;3132;42.622;23.328;2023-05-07T12:55:48;92907.41;;;21.41;40.31
6198;BME280;3132;42.622;23.328;2023-05-07T12:58:16;92914.19;;;21.66;38.96
6198;BME280;3132;42.622;23.328;2023-05-07T13:00:42;92906.72;;;21.71;38.47
6198;BME280;3132;42.622;23.328;2023-05-07T13:03:08;92911.50;;;21.78;37.92
6198;BME280;3132;42.622;23.328;2023-05-07T13:05:34;92899.06;;;21.82;37.81
6198;BME280;3132;42.622;23.328;2023-05-07T13:08:00;92897.06;;;21.51;39.32
6198;BME280;3132;42.622;23.328;2023-05-07T13:10:26;92906.88;;;21.35;37.43
6198;BME280;3132;42.622;23.328;2023-05-07T13:12:51;92901.72;;;21.15;37.50
6198;BME280;3132;42.622;23.328;2023-05-07T13:15:17;92896.81;;;21.29;37.52
6198;BME280;3132;42.622;23.328;2023-05-07T13:17:43;92893.13;;;21.06;40.18
6198;BME280;3132;42.622;23.328;2023-05-07T13:20:10;92888.22;;;21.20;42.48
6198;BME280;3132;42.622;23.328;2023-05-07T13:22:36;92891.38;;;21.65;42.08
6198;BME280;3132;42.622;23.328;2023-05-07T13:25:02;92887.56;;;21.78;38.56